Aérodrome :
LOGIN :

S'inscrire | Disclaimer

   EN    FR    IT 

 










Légende :    VFR   VFR Marginal   IFR   IFR Intensif   IFR Très Intensif
Visi : 
Plafond : 
>= 8 km
>= 3000ft
5 à 8 km
1000 à 3000 ft
1500m à 5 km
500 à 1000 ft
800 à 1500m
200 à 500 ft
< 800m
< 200 ft
Symboles :   Orages  Brouillard  Fortes neiges  Fortes précipitations  Vent > 20 kt
SIGMETs :   Divers  Orages  Givrage  Turbulence  Onde Orograph.  Cendres Volcan.







- Altitude de l'aérodrome : 274 ft
- Code IATA : PUY


LDPL - Pula

DERNIER METAR :
  • 261630Z 11006KT CAVOK 21/11 Q1011 NOSIG

METARs EXPIRÉS :
  • 261600Z 12005KT 070V170 CAVOK 22/11 Q1011 NOSIG
  • 261530Z 13006KT 090V170 CAVOK 22/09 Q1011 NOSIG
  • 261500Z 12007KT 080V150 CAVOK 22/08 Q1011 NOSIG
  • 261430Z 14006KT 080V190 CAVOK 22/10 Q1012 NOSIG
  • 261400Z 13007KT 080V170 CAVOK 22/12 Q1012 NOSIG

TAF TAF LDPL
Valide du 26 à 12h jusqu'au 27 à 12h UTC


261125Z 2612/2712 10010KT CAVOK TX22/2613Z TN13/2704Z
PROB40 2612/2616 28008KT
BECMG 2620/2622 06012KT
TEMPO 2622/2706 06020G30KT
Pas de NOTAMs connus pour ce terrain.



MET'MAP, la Météo Aéronautique d'un coup d'oeil ! - Copyright ORBIFLY Décembre 2007 - Disclaimer

ORBIFLY MET'MAP TEAM :

Programmation & Développement : Alexandra Zaïnal
Conception & Développement : Baudouin d'Aumeries
Co-Programmation & Développement : Marc-Olivier Méhu
Soutien technique & logistique : Manuel Goepfert

Contact : metmap@orbifly.com




SOURCES & CREDITS :

   NOAA